Hlavní strana
METAR-TAF:

METAR-TAF

Letiště :

Letiště Mnichov

Mnichov, Německo

zeměpisná šířka: 48-21N, zeměpisná délka: 011-47E, výška: 453 m

Aktuální stav počasí

Zpráva byla vytvořena před 10 minutami, v 19:20 UTC
Východojihovýchodní vítr 1 kt
Teplota 20°C
Vlhkost vzduchu 73%
Tlak 1018 hPa
Viditelnost 10 km a více
Žádná oblačnost pod 1500 m, nevyskytují se cumulonimby.

METAR: EDDM 271920Z 12001KT CAVOK 20/15 Q1018 NOSIG

Čas: 21:30 (19:30 UTC)

Předpověď počasí

Zpráva byla vytvořena před 2 hodinami a 30 minutami, v 17:00 UTC
Předpověď platná od 27 v 18 UTC do 28 v 24 UTC
vítr z různých směrů 3 kt
Viditelnost 10 km a více
Žádná oblačnost pod 1500 m, nevyskytují se cumulonimby.
Změna
od 28 v 06 UTC do 28 v 08 UTC
Východní vítr 8 kt

TAF: EDDM 271700Z 2718/2824 VRB03KT CAVOK BECMG 2806/2808 09008KT

Stav a předpovědi počasí z více než 4 000 letišť (zprávy METAR a TAF).

Červené a žluté tečky na mapě představují dostupné meteorologické stanice.

Když kurzor umístíte na tečku, zobrazí se název stanice.

Pak kliknutím zobrazíte stav a předpověď počasí.

Chcete-li změnit mapu, kliknutím na zelené tlačítko se znaménkem +mapu přiblížíte, kliknutím na zelené tlačítko se znaménkem – mapu oddálíte a kliknutím na zelené šipky přejdete na sousední mapy.


METAR-TAF: